sensor_id;sensor_type;location;lat;lon;timestamp;temperature;humidity
21563;DHT22;10942;47.894;11.424;2024-03-17T00:01:03;8.90;99.90
21563;DHT22;10942;47.894;11.424;2024-03-17T00:03:31;8.90;99.90
21563;DHT22;10942;47.894;11.424;2024-03-17T00:05:58;8.90;99.90
21563;DHT22;10942;47.894;11.424;2024-03-17T00:08:24;8.90;99.90
21563;DHT22;10942;47.894;11.424;2024-03-17T00:10:51;8.90;99.90
21563;DHT22;10942;47.894;11.424;2024-03-17T00:13:17;8.90;99.90
21563;DHT22;10942;47.894;11.424;2024-03-17T00:15:43;8.80;99.90
21563;DHT22;10942;47.894;11.424;2024-03-17T00:18:09;8.80;99.90
21563;DHT22;10942;47.894;11.424;2024-03-17T00:20:36;8.80;99.90
21563;DHT22;10942;47.894;11.424;2024-03-17T00:23:02;8.80;99.90
21563;DHT22;10942;47.894;11.424;2024-03-17T00:25:27;8.80;99.90
21563;DHT22;10942;47.894;11.424;2024-03-17T00:27:53;8.80;99.90
21563;DHT22;10942;47.894;11.424;2024-03-17T00:30:22;8.80;99.90
21563;DHT22;10942;47.894;11.424;2024-03-17T00:32:48;8.80;99.90
21563;DHT22;10942;47.894;11.424;2024-03-17T00:35:13;8.80;99.90
21563;DHT22;10942;47.894;11.424;2024-03-17T00:37:46;8.80;99.90
21563;DHT22;10942;47.894;11.424;2024-03-17T00:40:12;8.80;99.90
21563;DHT22;10942;47.894;11.424;2024-03-17T00:42:38;8.80;99.90
21563;DHT22;10942;47.894;11.424;2024-03-17T00:45:04;8.70;99.90
21563;DHT22;10942;47.894;11.424;2024-03-17T00:47:32;8.70;99.90
21563;DHT22;10942;47.894;11.424;2024-03-17T00:49:58;8.80;99.90
21563;DHT22;10942;47.894;11.424;2024-03-17T00:52:24;8.80;99.90
21563;DHT22;10942;47.894;11.424;2024-03-17T00:54:49;8.80;99.90
21563;DHT22;10942;47.894;11.424;2024-03-17T00:57:15;8.80;99.90
21563;DHT22;10942;47.894;11.424;2024-03-17T00:59:42;8.70;99.90
21563;DHT22;10942;47.894;11.424;2024-03-17T01:02:12;8.80;99.90
21563;DHT22;10942;47.894;11.424;2024-03-17T01:04:39;8.70;99.90
21563;DHT22;10942;47.894;11.424;2024-03-17T01:07:05;8.80;99.90
21563;DHT22;10942;47.894;11.424;2024-03-17T01:09:31;8.80;99.90
21563;DHT22;10942;47.894;11.424;2024-03-17T01:11:57;8.70;99.90
21563;DHT22;10942;47.894;11.424;2024-03-17T01:14:22;8.70;99.90
21563;DHT22;10942;47.894;11.424;2024-03-17T01:16:50;8.70;99.90
21563;DHT22;10942;47.894;11.424;2024-03-17T01:19:16;8.70;99.90
21563;DHT22;10942;47.894;11.424;2024-03-17T01:21:42;8.70;99.90
21563;DHT22;10942;47.894;11.424;2024-03-17T01:24:08;8.60;99.90
21563;DHT22;10942;47.894;11.424;2024-03-17T01:26:34;8.70;99.90
21563;DHT22;10942;47.894;11.424;2024-03-17T01:28:59;8.60;99.90
21563;DHT22;10942;47.894;11.424;2024-03-17T01:31:25;8.60;99.90
21563;DHT22;10942;47.894;11.424;2024-03-17T01:33:51;8.50;99.90
21563;DHT22;10942;47.894;11.424;2024-03-17T01:36:16;8.50;99.90
21563;DHT22;10942;47.894;11.424;2024-03-17T01:41:08;8.50;99.90
21563;DHT22;10942;47.894;11.424;2024-03-17T01:43:33;8.40;99.90
21563;DHT22;10942;47.894;11.424;2024-03-17T01:45:59;8.40;99.90
21563;DHT22;10942;47.894;11.424;2024-03-17T01:48:26;8.40;99.90
21563;DHT22;10942;47.894;11.424;2024-03-17T01:50:53;8.30;99.90
21563;DHT22;10942;47.894;11.424;2024-03-17T01:53:19;8.30;99.90
21563;DHT22;10942;47.894;11.424;2024-03-17T01:55:47;8.30;99.90
21563;DHT22;10942;47.894;11.424;2024-03-17T01:58:13;8.30;99.90
21563;DHT22;10942;47.894;11.424;2024-03-17T02:00:39;8.30;99.90
21563;DHT22;10942;47.894;11.424;2024-03-17T02:03:06;8.30;99.90
21563;DHT22;10942;47.894;11.424;2024-03-17T02:05:32;8.20;99.90
21563;DHT22;10942;47.894;11.424;2024-03-17T02:07:59;8.20;99.90
21563;DHT22;10942;47.894;11.424;2024-03-17T02:10:25;8.20;99.90
21563;DHT22;10942;47.894;11.424;2024-03-17T02:12:51;8.20;99.90
21563;DHT22;10942;47.894;11.424;2024-03-17T02:15:17;8.20;99.90
21563;DHT22;10942;47.894;11.424;2024-03-17T02:17:43;8.20;99.90
21563;DHT22;10942;47.894;11.424;2024-03-17T02:20:09;8.20;99.90
21563;DHT22;10942;47.894;11.424;2024-03-17T02:25:05;8.10;99.90
21563;DHT22;10942;47.894;11.424;2024-03-17T02:27:37;8.00;99.90
21563;DHT22;10942;47.894;11.424;2024-03-17T02:30:04;8.10;99.90
21563;DHT22;10942;47.894;11.424;2024-03-17T02:32:35;8.10;99.90
21563;DHT22;10942;47.894;11.424;2024-03-17T02:35:01;8.10;99.90
21563;DHT22;10942;47.894;11.424;2024-03-17T02:37:27;8.10;99.90
21563;DHT22;10942;47.894;11.424;2024-03-17T02:39:53;8.10;99.90
21563;DHT22;10942;47.894;11.424;2024-03-17T02:42:19;8.10;99.90
21563;DHT22;10942;47.894;11.424;2024-03-17T02:44:44;8.00;99.90
21563;DHT22;10942;47.894;11.424;2024-03-17T02:47:11;8.00;99.90
21563;DHT22;10942;47.894;11.424;2024-03-17T02:49:40;8.00;99.90
21563;DHT22;10942;47.894;11.424;2024-03-17T02:54:39;7.90;99.90
21563;DHT22;10942;47.894;11.424;2024-03-17T02:57:05;7.90;99.90
21563;DHT22;10942;47.894;11.424;2024-03-17T02:59:34;7.90;99.90
21563;DHT22;10942;47.894;11.424;2024-03-17T03:02:00;7.90;99.90
21563;DHT22;10942;47.894;11.424;2024-03-17T03:04:27;7.90;99.90
21563;DHT22;10942;47.894;11.424;2024-03-17T03:06:53;7.70;99.90
21563;DHT22;10942;47.894;11.424;2024-03-17T03:09:18;7.80;99.90
21563;DHT22;10942;47.894;11.424;2024-03-17T07:07:14;9.80;99.90
21563;DHT22;10942;47.894;11.424;2024-03-17T07:09:40;9.90;99.90
21563;DHT22;10942;47.894;11.424;2024-03-17T07:12:10;10.10;99.90
21563;DHT22;10942;47.894;11.424;2024-03-17T07:14:36;9.80;99.90
21563;DHT22;10942;47.894;11.424;2024-03-17T07:17:03;9.80;99.90
21563;DHT22;10942;47.894;11.424;2024-03-17T07:19:29;10.00;99.90
21563;DHT22;10942;47.894;11.424;2024-03-17T07:21:57;10.00;99.90
21563;DHT22;10942;47.894;11.424;2024-03-17T07:24:22;9.90;99.90
21563;DHT22;10942;47.894;11.424;2024-03-17T07:26:49;9.60;99.90
21563;DHT22;10942;47.894;11.424;2024-03-17T07:29:15;9.80;99.90
21563;DHT22;10942;47.894;11.424;2024-03-17T07:31:40;10.20;99.90
21563;DHT22;10942;47.894;11.424;2024-03-17T07:34:06;10.30;99.90
21563;DHT22;10942;47.894;11.424;2024-03-17T07:36:32;10.80;99.90
21563;DHT22;10942;47.894;11.424;2024-03-17T07:38:57;11.20;99.90
21563;DHT22;10942;47.894;11.424;2024-03-17T07:41:23;11.20;99.90
21563;DHT22;10942;47.894;11.424;2024-03-17T07:43:50;11.50;99.90
21563;DHT22;10942;47.894;11.424;2024-03-17T07:46:15;11.90;99.90
21563;DHT22;10942;47.894;11.424;2024-03-17T07:48:43;11.80;99.90
21563;DHT22;10942;47.894;11.424;2024-03-17T07:51:13;11.80;99.90
21563;DHT22;10942;47.894;11.424;2024-03-17T07:53:44;11.70;99.90
21563;DHT22;10942;47.894;11.424;2024-03-17T07:58:41;12.70;99.90
21563;DHT22;10942;47.894;11.424;2024-03-17T08:18:22;17.00;99.90
21563;DHT22;10942;47.894;11.424;2024-03-17T08:20:48;17.20;99.90
21563;DHT22;10942;47.894;11.424;2024-03-17T08:23:14;16.90;99.90
21563;DHT22;10942;47.894;11.424;2024-03-17T08:25:40;17.20;99.90
21563;DHT22;10942;47.894;11.424;2024-03-17T08:28:06;17.50;99.90
21563;DHT22;10942;47.894;11.424;2024-03-17T08:30:34;17.50;99.90
21563;DHT22;10942;47.894;11.424;2024-03-17T08:33:01;17.40;99.90
21563;DHT22;10942;47.894;11.424;2024-03-17T08:35:27;17.50;99.90
21563;DHT22;10942;47.894;11.424;2024-03-17T08:37:52;17.40;99.90
21563;DHT22;10942;47.894;11.424;2024-03-17T08:40:20;18.20;99.90
21563;DHT22;10942;47.894;11.424;2024-03-17T08:42:46;18.20;99.90
21563;DHT22;10942;47.894;11.424;2024-03-17T08:50:05;18.30;99.90
21563;DHT22;10942;47.894;11.424;2024-03-17T08:52:34;19.20;99.90
21563;DHT22;10942;47.894;11.424;2024-03-17T08:55:00;19.00;99.90
21563;DHT22;10942;47.894;11.424;2024-03-17T08:57:29;18.90;99.90
21563;DHT22;10942;47.894;11.424;2024-03-17T08:59:55;18.60;99.90
21563;DHT22;10942;47.894;11.424;2024-03-17T09:02:21;19.00;99.90
21563;DHT22;10942;47.894;11.424;2024-03-17T09:04:47;19.20;99.90
21563;DHT22;10942;47.894;11.424;2024-03-17T09:07:13;19.30;99.90
21563;DHT22;10942;47.894;11.424;2024-03-17T09:09:42;19.80;99.90
21563;DHT22;10942;47.894;11.424;2024-03-17T09:12:08;19.80;99.90
21563;DHT22;10942;47.894;11.424;2024-03-17T09:14:34;19.70;99.90
21563;DHT22;10942;47.894;11.424;2024-03-17T09:17:01;19.70;99.90
21563;DHT22;10942;47.894;11.424;2024-03-17T09:19:26;18.90;99.90
21563;DHT22;10942;47.894;11.424;2024-03-17T09:21:55;19.00;99.90
21563;DHT22;10942;47.894;11.424;2024-03-17T09:24:20;19.20;99.90
21563;DHT22;10942;47.894;11.424;2024-03-17T09:26:46;19.70;99.90
21563;DHT22;10942;47.894;11.424;2024-03-17T09:29:13;19.60;99.90
21563;DHT22;10942;47.894;11.424;2024-03-17T09:31:41;19.20;99.90
21563;DHT22;10942;47.894;11.424;2024-03-17T09:34:07;19.70;99.90
21563;DHT22;10942;47.894;11.424;2024-03-17T09:36:34;19.50;99.90
21563;DHT22;10942;47.894;11.424;2024-03-17T09:38:59;19.60;99.90
21563;DHT22;10942;47.894;11.424;2024-03-17T09:41:29;19.90;99.90
21563;DHT22;10942;47.894;11.424;2024-03-17T09:43:58;20.40;99.90
21563;DHT22;10942;47.894;11.424;2024-03-17T09:46:25;20.40;99.90
21563;DHT22;10942;47.894;11.424;2024-03-17T09:48:53;19.70;99.90
21563;DHT22;10942;47.894;11.424;2024-03-17T09:51:23;19.50;99.90
21563;DHT22;10942;47.894;11.424;2024-03-17T10:06:15;20.20;99.90
21563;DHT22;10942;47.894;11.424;2024-03-17T17:03:53;13.00;99.90
21563;DHT22;10942;47.894;11.424;2024-03-17T17:06:20;12.80;99.90
21563;DHT22;10942;47.894;11.424;2024-03-17T17:08:46;12.70;99.90
21563;DHT22;10942;47.894;11.424;2024-03-17T17:11:16;12.70;99.90
21563;DHT22;10942;47.894;11.424;2024-03-17T17:13:43;12.50;99.90
21563;DHT22;10942;47.894;11.424;2024-03-17T17:16:09;12.50;99.90
21563;DHT22;10942;47.894;11.424;2024-03-17T17:21:23;12.40;99.90
21563;DHT22;10942;47.894;11.424;2024-03-17T17:23:50;12.40;99.90
21563;DHT22;10942;47.894;11.424;2024-03-17T17:26:20;12.30;99.90
21563;DHT22;10942;47.894;11.424;2024-03-17T17:28:48;12.20;99.90
21563;DHT22;10942;47.894;11.424;2024-03-17T17:31:18;12.20;99.90
21563;DHT22;10942;47.894;11.424;2024-03-17T17:33:43;12.20;99.90
21563;DHT22;10942;47.894;11.424;2024-03-17T17:36:09;12.20;99.90
21563;DHT22;10942;47.894;11.424;2024-03-17T17:38:38;12.20;99.90
21563;DHT22;10942;47.894;11.424;2024-03-17T17:41:04;12.20;99.90
21563;DHT22;10942;47.894;11.424;2024-03-17T17:43:49;12.10;99.90
21563;DHT22;10942;47.894;11.424;2024-03-17T17:46:16;12.10;99.90
21563;DHT22;10942;47.894;11.424;2024-03-17T17:48:43;12.10;99.90
21563;DHT22;10942;47.894;11.424;2024-03-17T17:51:20;12.20;99.90
21563;DHT22;10942;47.894;11.424;2024-03-17T17:53:48;12.20;99.90
21563;DHT22;10942;47.894;11.424;2024-03-17T17:56:16;12.10;99.90
21563;DHT22;10942;47.894;11.424;2024-03-17T17:58:44;12.10;99.90
21563;DHT22;10942;47.894;11.424;2024-03-17T18:01:17;12.10;99.90
21563;DHT22;10942;47.894;11.424;2024-03-17T18:03:44;12.00;99.90
21563;DHT22;10942;47.894;11.424;2024-03-17T18:06:11;12.10;99.90
21563;DHT22;10942;47.894;11.424;2024-03-17T18:08:38;12.10;99.90
21563;DHT22;10942;47.894;11.424;2024-03-17T18:11:05;12.10;99.90
21563;DHT22;10942;47.894;11.424;2024-03-17T18:13:32;12.10;99.90
21563;DHT22;10942;47.894;11.424;2024-03-17T18:15:58;12.00;99.90
21563;DHT22;10942;47.894;11.424;2024-03-17T18:18:25;12.00;99.90
21563;DHT22;10942;47.894;11.424;2024-03-17T18:20:56;12.00;99.90
21563;DHT22;10942;47.894;11.424;2024-03-17T18:23:23;12.00;99.90
21563;DHT22;10942;47.894;11.424;2024-03-17T18:25:49;12.10;99.90
21563;DHT22;10942;47.894;11.424;2024-03-17T18:28:16;12.00;99.90
21563;DHT22;10942;47.894;11.424;2024-03-17T18:30:42;12.00;99.90
21563;DHT22;10942;47.894;11.424;2024-03-17T18:35:34;11.70;99.90
21563;DHT22;10942;47.894;11.424;2024-03-17T19:44:11;11.00;99.90
21563;DHT22;10942;47.894;11.424;2024-03-17T19:46:36;11.00;99.90
21563;DHT22;10942;47.894;11.424;2024-03-17T19:49:05;10.90;99.90
21563;DHT22;10942;47.894;11.424;2024-03-17T19:51:31;10.90;99.90
21563;DHT22;10942;47.894;11.424;2024-03-17T19:53:57;10.90;99.90
21563;DHT22;10942;47.894;11.424;2024-03-17T19:56:22;10.80;99.90
21563;DHT22;10942;47.894;11.424;2024-03-17T19:58:50;10.80;99.90
21563;DHT22;10942;47.894;11.424;2024-03-17T20:01:16;10.80;99.90
21563;DHT22;10942;47.894;11.424;2024-03-17T20:03:45;10.70;99.90
21563;DHT22;10942;47.894;11.424;2024-03-17T20:06:20;10.70;99.90
21563;DHT22;10942;47.894;11.424;2024-03-17T20:08:47;10.70;99.90
21563;DHT22;10942;47.894;11.424;2024-03-17T20:11:14;10.70;99.90
21563;DHT22;10942;47.894;11.424;2024-03-17T20:13:40;10.70;99.90
21563;DHT22;10942;47.894;11.424;2024-03-17T20:16:06;10.70;99.90
21563;DHT22;10942;47.894;11.424;2024-03-17T20:20:58;10.50;99.90
21563;DHT22;10942;47.894;11.424;2024-03-17T20:23:24;10.50;99.90
21563;DHT22;10942;47.894;11.424;2024-03-17T20:28:16;10.50;99.90
21563;DHT22;10942;47.894;11.424;2024-03-17T20:30:42;10.50;99.90
21563;DHT22;10942;47.894;11.424;2024-03-17T20:33:08;10.50;99.90
21563;DHT22;10942;47.894;11.424;2024-03-17T20:35:37;10.50;99.90
21563;DHT22;10942;47.894;11.424;2024-03-17T20:38:03;10.50;99.90
21563;DHT22;10942;47.894;11.424;2024-03-17T20:40:29;10.50;99.90
21563;DHT22;10942;47.894;11.424;2024-03-17T20:42:56;10.50;99.90
21563;DHT22;10942;47.894;11.424;2024-03-17T20:45:22;10.40;99.90
21563;DHT22;10942;47.894;11.424;2024-03-17T20:47:53;10.50;99.90
21563;DHT22;10942;47.894;11.424;2024-03-17T20:50:20;10.50;99.90
21563;DHT22;10942;47.894;11.424;2024-03-17T20:52:47;10.50;99.90
21563;DHT22;10942;47.894;11.424;2024-03-17T20:55:13;10.40;99.90
21563;DHT22;10942;47.894;11.424;2024-03-17T20:57:41;10.40;99.90
21563;DHT22;10942;47.894;11.424;2024-03-17T21:00:08;10.40;99.90
21563;DHT22;10942;47.894;11.424;2024-03-17T21:02:46;10.40;99.90
21563;DHT22;10942;47.894;11.424;2024-03-17T21:05:12;10.40;99.90
21563;DHT22;10942;47.894;11.424;2024-03-17T21:07:38;10.40;99.90
21563;DHT22;10942;47.894;11.424;2024-03-17T21:10:03;10.40;99.90
21563;DHT22;10942;47.894;11.424;2024-03-17T21:12:29;10.50;99.90
21563;DHT22;10942;47.894;11.424;2024-03-17T21:14:55;10.50;99.90
21563;DHT22;10942;47.894;11.424;2024-03-17T21:17:20;10.50;99.90
21563;DHT22;10942;47.894;11.424;2024-03-17T21:19:46;10.50;99.90
21563;DHT22;10942;47.894;11.424;2024-03-17T21:22:14;10.40;99.90
21563;DHT22;10942;47.894;11.424;2024-03-17T21:24:40;10.40;99.90
21563;DHT22;10942;47.894;11.424;2024-03-17T21:27:06;10.40;99.90
21563;DHT22;10942;47.894;11.424;2024-03-17T21:29:31;10.40;99.90
21563;DHT22;10942;47.894;11.424;2024-03-17T21:31:57;10.40;99.90
21563;DHT22;10942;47.894;11.424;2024-03-17T21:34:23;10.40;99.90
21563;DHT22;10942;47.894;11.424;2024-03-17T21:36:49;10.40;99.90
21563;DHT22;10942;47.894;11.424;2024-03-17T21:39:15;10.40;99.90
21563;DHT22;10942;47.894;11.424;2024-03-17T21:41:42;10.40;99.90
21563;DHT22;10942;47.894;11.424;2024-03-17T21:44:08;10.30;99.90
21563;DHT22;10942;47.894;11.424;2024-03-17T21:46:33;10.30;99.90
21563;DHT22;10942;47.894;11.424;2024-03-17T21:48:59;10.30;99.90
21563;DHT22;10942;47.894;11.424;2024-03-17T21:51:27;10.20;99.90
21563;DHT22;10942;47.894;11.424;2024-03-17T21:53:53;10.40;99.90
21563;DHT22;10942;47.894;11.424;2024-03-17T21:56:18;10.40;99.90
21563;DHT22;10942;47.894;11.424;2024-03-17T21:58:44;10.40;99.90
21563;DHT22;10942;47.894;11.424;2024-03-17T22:01:11;10.20;99.90
21563;DHT22;10942;47.894;11.424;2024-03-17T22:03:37;10.30;99.90
21563;DHT22;10942;47.894;11.424;2024-03-17T22:06:02;10.20;99.90
21563;DHT22;10942;47.894;11.424;2024-03-17T22:08:30;10.40;99.90
21563;DHT22;10942;47.894;11.424;2024-03-17T22:10:57;10.30;99.90
21563;DHT22;10942;47.894;11.424;2024-03-17T22:13:28;10.30;99.90
21563;DHT22;10942;47.894;11.424;2024-03-17T22:15:57;10.30;99.90
21563;DHT22;10942;47.894;11.424;2024-03-17T22:18:24;10.30;99.90
21563;DHT22;10942;47.894;11.424;2024-03-17T22:20:58;10.40;99.90
21563;DHT22;10942;47.894;11.424;2024-03-17T22:23:25;10.40;99.90
21563;DHT22;10942;47.894;11.424;2024-03-17T22:25:52;10.30;99.90
21563;DHT22;10942;47.894;11.424;2024-03-17T22:28:18;10.40;99.90
21563;DHT22;10942;47.894;11.424;2024-03-17T22:33:17;10.40;99.90
21563;DHT22;10942;47.894;11.424;2024-03-17T22:35:42;10.40;99.90
21563;DHT22;10942;47.894;11.424;2024-03-17T22:38:08;10.30;99.90
21563;DHT22;10942;47.894;11.424;2024-03-17T22:40:34;10.30;99.90
21563;DHT22;10942;47.894;11.424;2024-03-17T22:43:00;10.30;99.90
21563;DHT22;10942;47.894;11.424;2024-03-17T22:45:25;10.30;99.90
21563;DHT22;10942;47.894;11.424;2024-03-17T22:47:51;10.30;99.90
21563;DHT22;10942;47.894;11.424;2024-03-17T22:50:17;10.20;99.90
21563;DHT22;10942;47.894;11.424;2024-03-17T22:52:43;10.20;99.90
21563;DHT22;10942;47.894;11.424;2024-03-17T22:55:09;10.10;99.90
21563;DHT22;10942;47.894;11.424;2024-03-17T22:57:34;10.00;99.90
21563;DHT22;10942;47.894;11.424;2024-03-17T23:00:00;10.00;99.90
21563;DHT22;10942;47.894;11.424;2024-03-17T23:02:25;10.10;99.90
21563;DHT22;10942;47.894;11.424;2024-03-17T23:04:51;10.10;99.90
21563;DHT22;10942;47.894;11.424;2024-03-17T23:07:17;10.00;99.90
21563;DHT22;10942;47.894;11.424;2024-03-17T23:09:42;10.00;99.90
21563;DHT22;10942;47.894;11.424;2024-03-17T23:12:08;10.00;99.90
21563;DHT22;10942;47.894;11.424;2024-03-17T23:14:36;10.00;99.90
